sensor_id;sensor_type;location;lat;lon;timestamp;P1;durP1;ratioP1;P2;durP2;ratioP2
12768;SDS011;6448;48.916;8.990;2024-01-25T00:00:38;6.93;;;3.15;;
12768;SDS011;6448;48.916;8.990;2024-01-25T00:01:39;4.78;;;2.85;;
12768;SDS011;6448;48.916;8.990;2024-01-25T00:02:40;5.00;;;3.03;;
12768;SDS011;6448;48.916;8.990;2024-01-25T00:03:41;6.25;;;3.13;;
12768;SDS011;6448;48.916;8.990;2024-01-25T00:04:43;7.13;;;3.30;;
12768;SDS011;6448;48.916;8.990;2024-01-25T00:05:44;7.00;;;3.00;;
12768;SDS011;6448;48.916;8.990;2024-01-25T00:06:44;5.93;;;3.05;;
12768;SDS011;6448;48.916;8.990;2024-01-25T00:07:46;6.15;;;2.92;;
12768;SDS011;6448;48.916;8.990;2024-01-25T00:08:47;5.97;;;3.45;;
12768;SDS011;6448;48.916;8.990;2024-01-25T00:09:49;6.65;;;3.00;;
12768;SDS011;6448;48.916;8.990;2024-01-25T00:10:50;6.47;;;2.80;;
12768;SDS011;6448;48.916;8.990;2024-01-25T00:11:52;6.03;;;2.85;;
12768;SDS011;6448;48.916;8.990;2024-01-25T00:12:52;6.25;;;3.13;;
12768;SDS011;6448;48.916;8.990;2024-01-25T00:13:54;6.70;;;3.20;;
12768;SDS011;6448;48.916;8.990;2024-01-25T00:14:55;6.65;;;3.15;;
12768;SDS011;6448;48.916;8.990;2024-01-25T00:15:58;6.03;;;3.10;;
12768;SDS011;6448;48.916;8.990;2024-01-25T00:16:59;5.43;;;2.90;;
12768;SDS011;6448;48.916;8.990;2024-01-25T00:18:01;7.38;;;3.42;;
12768;SDS011;6448;48.916;8.990;2024-01-25T00:19:02;7.30;;;3.00;;
12768;SDS011;6448;48.916;8.990;2024-01-25T00:20:03;5.10;;;2.80;;
12768;SDS011;6448;48.916;8.990;2024-01-25T00:21:06;5.85;;;3.03;;
12768;SDS011;6448;48.916;8.990;2024-01-25T00:22:07;5.50;;;2.92;;
12768;SDS011;6448;48.916;8.990;2024-01-25T00:23:08;6.10;;;3.03;;
12768;SDS011;6448;48.916;8.990;2024-01-25T00:24:11;8.05;;;3.47;;
12768;SDS011;6448;48.916;8.990;2024-01-25T00:25:13;5.53;;;2.88;;
12768;SDS011;6448;48.916;8.990;2024-01-25T00:26:14;6.82;;;2.97;;
12768;SDS011;6448;48.916;8.990;2024-01-25T00:27:15;7.50;;;2.70;;
12768;SDS011;6448;48.916;8.990;2024-01-25T00:28:16;5.53;;;3.00;;
12768;SDS011;6448;48.916;8.990;2024-01-25T00:29:18;5.80;;;2.97;;
12768;SDS011;6448;48.916;8.990;2024-01-25T00:30:19;5.38;;;2.95;;
12768;SDS011;6448;48.916;8.990;2024-01-25T00:31:22;6.20;;;2.90;;
12768;SDS011;6448;48.916;8.990;2024-01-25T00:32:23;5.68;;;2.90;;
12768;SDS011;6448;48.916;8.990;2024-01-25T00:33:23;5.95;;;3.00;;
12768;SDS011;6448;48.916;8.990;2024-01-25T00:34:25;5.85;;;2.90;;
12768;SDS011;6448;48.916;8.990;2024-01-25T00:35:27;6.10;;;3.07;;
12768;SDS011;6448;48.916;8.990;2024-01-25T00:36:29;6.90;;;3.25;;
12768;SDS011;6448;48.916;8.990;2024-01-25T00:37:30;7.80;;;3.20;;
12768;SDS011;6448;48.916;8.990;2024-01-25T00:38:33;5.35;;;2.70;;
12768;SDS011;6448;48.916;8.990;2024-01-25T00:39:34;6.57;;;3.20;;
12768;SDS011;6448;48.916;8.990;2024-01-25T00:40:37;7.25;;;3.40;;
12768;SDS011;6448;48.916;8.990;2024-01-25T00:41:38;5.93;;;2.92;;
12768;SDS011;6448;48.916;8.990;2024-01-25T00:42:43;6.47;;;3.00;;
12768;SDS011;6448;48.916;8.990;2024-01-25T00:43:45;5.28;;;2.75;;
12768;SDS011;6448;48.916;8.990;2024-01-25T00:44:48;5.97;;;3.00;;
12768;SDS011;6448;48.916;8.990;2024-01-25T00:45:49;6.68;;;3.25;;
12768;SDS011;6448;48.916;8.990;2024-01-25T00:46:52;6.00;;;2.90;;
12768;SDS011;6448;48.916;8.990;2024-01-25T00:47:54;6.90;;;3.10;;
12768;SDS011;6448;48.916;8.990;2024-01-25T00:48:56;6.60;;;3.20;;
12768;SDS011;6448;48.916;8.990;2024-01-25T00:49:57;5.50;;;2.88;;
12768;SDS011;6448;48.916;8.990;2024-01-25T00:50:59;6.70;;;2.95;;
12768;SDS011;6448;48.916;8.990;2024-01-25T00:52:00;7.13;;;3.20;;
12768;SDS011;6448;48.916;8.990;2024-01-25T00:53:04;5.90;;;3.22;;
12768;SDS011;6448;48.916;8.990;2024-01-25T00:54:06;5.45;;;2.78;;
12768;SDS011;6448;48.916;8.990;2024-01-25T00:55:09;6.93;;;3.10;;
12768;SDS011;6448;48.916;8.990;2024-01-25T00:56:11;5.85;;;2.97;;
12768;SDS011;6448;48.916;8.990;2024-01-25T00:57:13;6.22;;;3.05;;
12768;SDS011;6448;48.916;8.990;2024-01-25T00:58:15;6.35;;;3.00;;
12768;SDS011;6448;48.916;8.990;2024-01-25T00:59:17;5.60;;;3.20;;
12768;SDS011;6448;48.916;8.990;2024-01-25T01:00:19;6.38;;;3.00;;
12768;SDS011;6448;48.916;8.990;2024-01-25T01:01:22;5.97;;;3.20;;
12768;SDS011;6448;48.916;8.990;2024-01-25T01:02:26;6.20;;;2.90;;
12768;SDS011;6448;48.916;8.990;2024-01-25T01:03:31;6.78;;;3.22;;
12768;SDS011;6448;48.916;8.990;2024-01-25T01:04:32;6.50;;;3.08;;
12768;SDS011;6448;48.916;8.990;2024-01-25T01:05:34;6.03;;;3.13;;
12768;SDS011;6448;48.916;8.990;2024-01-25T01:06:35;6.07;;;3.22;;
12768;SDS011;6448;48.916;8.990;2024-01-25T01:07:38;5.97;;;3.20;;
12768;SDS011;6448;48.916;8.990;2024-01-25T01:08:41;4.95;;;2.80;;
12768;SDS011;6448;48.916;8.990;2024-01-25T01:09:43;7.35;;;3.03;;
12768;SDS011;6448;48.916;8.990;2024-01-25T01:10:43;6.28;;;2.97;;
12768;SDS011;6448;48.916;8.990;2024-01-25T01:11:46;7.78;;;3.15;;
12768;SDS011;6448;48.916;8.990;2024-01-25T01:12:47;5.70;;;3.10;;
12768;SDS011;6448;48.916;8.990;2024-01-25T01:13:48;5.30;;;2.90;;
12768;SDS011;6448;48.916;8.990;2024-01-25T01:14:50;5.82;;;3.00;;
12768;SDS011;6448;48.916;8.990;2024-01-25T01:15:50;6.70;;;3.05;;
12768;SDS011;6448;48.916;8.990;2024-01-25T01:16:52;5.13;;;2.90;;
12768;SDS011;6448;48.916;8.990;2024-01-25T01:17:54;7.07;;;3.33;;
12768;SDS011;6448;48.916;8.990;2024-01-25T01:18:55;6.40;;;3.10;;
12768;SDS011;6448;48.916;8.990;2024-01-25T01:19:57;6.07;;;2.70;;
12768;SDS011;6448;48.916;8.990;2024-01-25T01:20:58;6.70;;;3.07;;
12768;SDS011;6448;48.916;8.990;2024-01-25T01:22:00;5.28;;;2.85;;
12768;SDS011;6448;48.916;8.990;2024-01-25T01:23:00;6.57;;;3.30;;
12768;SDS011;6448;48.916;8.990;2024-01-25T01:24:02;5.15;;;2.80;;
12768;SDS011;6448;48.916;8.990;2024-01-25T01:25:04;5.72;;;2.85;;
12768;SDS011;6448;48.916;8.990;2024-01-25T01:26:06;5.85;;;2.83;;
12768;SDS011;6448;48.916;8.990;2024-01-25T01:27:07;5.85;;;2.75;;
12768;SDS011;6448;48.916;8.990;2024-01-25T01:28:09;5.38;;;2.97;;
12768;SDS011;6448;48.916;8.990;2024-01-25T01:29:10;5.50;;;2.88;;
12768;SDS011;6448;48.916;8.990;2024-01-25T01:30:12;6.13;;;2.70;;
12768;SDS011;6448;48.916;8.990;2024-01-25T01:31:12;6.55;;;2.90;;
12768;SDS011;6448;48.916;8.990;2024-01-25T01:32:14;5.82;;;3.30;;
12768;SDS011;6448;48.916;8.990;2024-01-25T01:33:16;7.25;;;3.30;;
12768;SDS011;6448;48.916;8.990;2024-01-25T01:34:18;5.95;;;2.88;;
12768;SDS011;6448;48.916;8.990;2024-01-25T01:35:19;6.13;;;3.03;;
12768;SDS011;6448;48.916;8.990;2024-01-25T01:36:20;7.07;;;3.20;;
12768;SDS011;6448;48.916;8.990;2024-01-25T01:37:21;5.60;;;3.03;;
12768;SDS011;6448;48.916;8.990;2024-01-25T01:38:23;5.88;;;3.08;;
12768;SDS011;6448;48.916;8.990;2024-01-25T01:39:24;6.57;;;2.90;;
12768;SDS011;6448;48.916;8.990;2024-01-25T01:40:26;5.82;;;2.90;;
12768;SDS011;6448;48.916;8.990;2024-01-25T01:41:27;5.55;;;2.70;;
12768;SDS011;6448;48.916;8.990;2024-01-25T01:42:28;5.47;;;2.83;;
12768;SDS011;6448;48.916;8.990;2024-01-25T01:43:32;6.43;;;3.05;;
12768;SDS011;6448;48.916;8.990;2024-01-25T01:44:34;5.28;;;2.70;;
12768;SDS011;6448;48.916;8.990;2024-01-25T01:45:35;6.88;;;3.10;;
12768;SDS011;6448;48.916;8.990;2024-01-25T01:46:37;5.78;;;2.90;;
12768;SDS011;6448;48.916;8.990;2024-01-25T01:47:40;7.32;;;2.95;;
12768;SDS011;6448;48.916;8.990;2024-01-25T01:48:42;5.72;;;2.70;;
12768;SDS011;6448;48.916;8.990;2024-01-25T01:49:44;5.68;;;2.67;;
12768;SDS011;6448;48.916;8.990;2024-01-25T01:50:45;6.95;;;2.90;;
12768;SDS011;6448;48.916;8.990;2024-01-25T01:51:47;6.68;;;3.20;;
12768;SDS011;6448;48.916;8.990;2024-01-25T01:52:49;6.90;;;3.08;;
12768;SDS011;6448;48.916;8.990;2024-01-25T01:53:51;6.30;;;3.00;;
12768;SDS011;6448;48.916;8.990;2024-01-25T01:54:53;5.87;;;2.87;;
12768;SDS011;6448;48.916;8.990;2024-01-25T01:55:56;5.68;;;2.90;;
12768;SDS011;6448;48.916;8.990;2024-01-25T01:56:57;6.18;;;2.92;;
12768;SDS011;6448;48.916;8.990;2024-01-25T01:57:59;6.43;;;3.00;;
12768;SDS011;6448;48.916;8.990;2024-01-25T01:59:01;5.57;;;2.80;;
12768;SDS011;6448;48.916;8.990;2024-01-25T02:00:06;5.85;;;2.88;;
12768;SDS011;6448;48.916;8.990;2024-01-25T02:01:12;5.85;;;2.67;;
12768;SDS011;6448;48.916;8.990;2024-01-25T02:02:13;5.28;;;2.63;;
12768;SDS011;6448;48.916;8.990;2024-01-25T02:03:15;5.43;;;2.90;;
12768;SDS011;6448;48.916;8.990;2024-01-25T02:04:17;5.60;;;2.90;;
12768;SDS011;6448;48.916;8.990;2024-01-25T02:05:19;6.40;;;2.97;;
12768;SDS011;6448;48.916;8.990;2024-01-25T02:06:20;5.88;;;3.00;;
12768;SDS011;6448;48.916;8.990;2024-01-25T02:07:21;7.07;;;3.30;;
12768;SDS011;6448;48.916;8.990;2024-01-25T02:08:23;5.07;;;2.85;;
12768;SDS011;6448;48.916;8.990;2024-01-25T02:09:25;5.85;;;2.70;;
12768;SDS011;6448;48.916;8.990;2024-01-25T02:10:27;5.73;;;2.90;;
12768;SDS011;6448;48.916;8.990;2024-01-25T02:11:28;4.97;;;2.57;;
12768;SDS011;6448;48.916;8.990;2024-01-25T02:12:30;7.35;;;3.00;;
12768;SDS011;6448;48.916;8.990;2024-01-25T02:13:31;5.83;;;3.20;;
12768;SDS011;6448;48.916;8.990;2024-01-25T02:14:32;6.40;;;2.95;;
12768;SDS011;6448;48.916;8.990;2024-01-25T02:15:33;6.13;;;3.00;;
12768;SDS011;6448;48.916;8.990;2024-01-25T02:16:35;5.50;;;2.95;;
12768;SDS011;6448;48.916;8.990;2024-01-25T02:17:36;6.18;;;3.13;;
12768;SDS011;6448;48.916;8.990;2024-01-25T02:18:38;6.73;;;3.00;;
12768;SDS011;6448;48.916;8.990;2024-01-25T02:19:41;5.30;;;2.97;;
12768;SDS011;6448;48.916;8.990;2024-01-25T02:20:43;6.03;;;2.97;;
12768;SDS011;6448;48.916;8.990;2024-01-25T02:21:43;6.32;;;3.00;;
12768;SDS011;6448;48.916;8.990;2024-01-25T02:22:47;5.38;;;2.80;;
12768;SDS011;6448;48.916;8.990;2024-01-25T02:23:47;5.43;;;2.83;;
12768;SDS011;6448;48.916;8.990;2024-01-25T02:24:49;5.57;;;2.75;;
12768;SDS011;6448;48.916;8.990;2024-01-25T02:25:50;5.70;;;3.05;;
12768;SDS011;6448;48.916;8.990;2024-01-25T02:26:52;5.97;;;2.88;;
12768;SDS011;6448;48.916;8.990;2024-01-25T02:27:53;5.47;;;2.88;;
12768;SDS011;6448;48.916;8.990;2024-01-25T02:28:53;6.40;;;2.92;;
12768;SDS011;6448;48.916;8.990;2024-01-25T02:29:55;5.72;;;2.88;;
12768;SDS011;6448;48.916;8.990;2024-01-25T02:30:56;6.22;;;2.95;;
12768;SDS011;6448;48.916;8.990;2024-01-25T02:31:58;4.95;;;2.60;;
12768;SDS011;6448;48.916;8.990;2024-01-25T02:32:58;5.63;;;2.50;;
12768;SDS011;6448;48.916;8.990;2024-01-25T02:34:00;6.00;;;3.03;;
12768;SDS011;6448;48.916;8.990;2024-01-25T02:35:01;6.03;;;3.08;;
12768;SDS011;6448;48.916;8.990;2024-01-25T02:36:03;5.13;;;2.70;;
12768;SDS011;6448;48.916;8.990;2024-01-25T02:37:04;5.72;;;2.90;;
12768;SDS011;6448;48.916;8.990;2024-01-25T02:38:08;5.53;;;2.90;;
12768;SDS011;6448;48.916;8.990;2024-01-25T02:39:08;5.40;;;2.90;;
12768;SDS011;6448;48.916;8.990;2024-01-25T02:40:10;5.78;;;2.75;;
12768;SDS011;6448;48.916;8.990;2024-01-25T02:41:12;6.43;;;3.10;;
12768;SDS011;6448;48.916;8.990;2024-01-25T02:42:14;6.03;;;2.58;;
12768;SDS011;6448;48.916;8.990;2024-01-25T02:43:16;6.90;;;2.90;;
12768;SDS011;6448;48.916;8.990;2024-01-25T02:44:18;5.85;;;2.85;;
12768;SDS011;6448;48.916;8.990;2024-01-25T02:45:19;5.03;;;2.70;;
12768;SDS011;6448;48.916;8.990;2024-01-25T02:46:21;4.57;;;2.55;;
12768;SDS011;6448;48.916;8.990;2024-01-25T02:47:21;6.65;;;2.70;;
12768;SDS011;6448;48.916;8.990;2024-01-25T02:48:23;5.57;;;2.73;;
12768;SDS011;6448;48.916;8.990;2024-01-25T02:49:24;4.97;;;2.40;;
12768;SDS011;6448;48.916;8.990;2024-01-25T02:50:26;5.10;;;2.72;;
12768;SDS011;6448;48.916;8.990;2024-01-25T02:51:27;6.47;;;3.10;;
12768;SDS011;6448;48.916;8.990;2024-01-25T02:52:28;5.00;;;2.70;;
12768;SDS011;6448;48.916;8.990;2024-01-25T02:53:31;6.15;;;2.90;;
12768;SDS011;6448;48.916;8.990;2024-01-25T02:54:34;4.80;;;2.38;;
12768;SDS011;6448;48.916;8.990;2024-01-25T02:55:36;5.72;;;2.60;;
12768;SDS011;6448;48.916;8.990;2024-01-25T02:56:38;6.32;;;2.92;;
12768;SDS011;6448;48.916;8.990;2024-01-25T02:57:39;6.10;;;2.83;;
12768;SDS011;6448;48.916;8.990;2024-01-25T02:58:41;6.65;;;2.92;;
12768;SDS011;6448;48.916;8.990;2024-01-25T02:59:41;7.72;;;3.10;;
12768;SDS011;6448;48.916;8.990;2024-01-25T03:00:43;5.78;;;2.85;;
12768;SDS011;6448;48.916;8.990;2024-01-25T03:01:44;5.07;;;2.72;;
12768;SDS011;6448;48.916;8.990;2024-01-25T03:02:46;6.10;;;2.85;;
12768;SDS011;6448;48.916;8.990;2024-01-25T03:03:47;5.93;;;2.90;;
12768;SDS011;6448;48.916;8.990;2024-01-25T03:04:48;6.45;;;3.10;;
12768;SDS011;6448;48.916;8.990;2024-01-25T03:05:50;6.07;;;2.70;;
12768;SDS011;6448;48.916;8.990;2024-01-25T03:06:52;4.72;;;2.40;;
12768;SDS011;6448;48.916;8.990;2024-01-25T03:07:53;6.60;;;3.00;;
12768;SDS011;6448;48.916;8.990;2024-01-25T03:08:56;6.03;;;2.85;;
12768;SDS011;6448;48.916;8.990;2024-01-25T03:09:57;5.82;;;3.05;;
12768;SDS011;6448;48.916;8.990;2024-01-25T03:10:59;6.43;;;3.00;;
12768;SDS011;6448;48.916;8.990;2024-01-25T03:12:00;5.38;;;2.90;;
12768;SDS011;6448;48.916;8.990;2024-01-25T03:13:02;5.13;;;2.70;;
12768;SDS011;6448;48.916;8.990;2024-01-25T03:14:02;5.68;;;2.83;;
12768;SDS011;6448;48.916;8.990;2024-01-25T03:15:04;6.10;;;2.90;;
12768;SDS011;6448;48.916;8.990;2024-01-25T03:16:06;7.05;;;3.15;;
12768;SDS011;6448;48.916;8.990;2024-01-25T03:17:07;6.53;;;2.83;;
12768;SDS011;6448;48.916;8.990;2024-01-25T03:18:09;5.63;;;2.90;;
12768;SDS011;6448;48.916;8.990;2024-01-25T03:19:10;6.47;;;2.85;;
12768;SDS011;6448;48.916;8.990;2024-01-25T03:20:12;5.15;;;2.55;;
12768;SDS011;6448;48.916;8.990;2024-01-25T03:21:13;5.93;;;2.88;;
12768;SDS011;6448;48.916;8.990;2024-01-25T03:22:14;6.15;;;3.00;;
12768;SDS011;6448;48.916;8.990;2024-01-25T03:23:15;6.63;;;3.10;;
12768;SDS011;6448;48.916;8.990;2024-01-25T03:24:18;6.07;;;2.93;;
12768;SDS011;6448;48.916;8.990;2024-01-25T03:25:19;5.38;;;2.97;;
12768;SDS011;6448;48.916;8.990;2024-01-25T03:26:20;5.88;;;2.90;;
12768;SDS011;6448;48.916;8.990;2024-01-25T03:27:22;4.97;;;2.78;;
12768;SDS011;6448;48.916;8.990;2024-01-25T03:28:23;6.68;;;3.00;;
12768;SDS011;6448;48.916;8.990;2024-01-25T03:29:23;5.38;;;3.13;;
12768;SDS011;6448;48.916;8.990;2024-01-25T03:30:25;6.40;;;3.10;;
12768;SDS011;6448;48.916;8.990;2024-01-25T03:31:26;4.83;;;2.90;;
12768;SDS011;6448;48.916;8.990;2024-01-25T03:32:27;6.32;;;3.25;;
12768;SDS011;6448;48.916;8.990;2024-01-25T03:33:28;5.73;;;3.20;;
12768;SDS011;6448;48.916;8.990;2024-01-25T03:34:32;6.07;;;3.00;;
12768;SDS011;6448;48.916;8.990;2024-01-25T03:35:33;5.13;;;2.87;;
12768;SDS011;6448;48.916;8.990;2024-01-25T03:36:35;6.50;;;3.30;;
12768;SDS011;6448;48.916;8.990;2024-01-25T03:37:36;7.10;;;3.50;;
12768;SDS011;6448;48.916;8.990;2024-01-25T03:38:38;6.30;;;3.20;;
12768;SDS011;6448;48.916;8.990;2024-01-25T03:39:40;5.63;;;2.90;;
12768;SDS011;6448;48.916;8.990;2024-01-25T03:40:41;5.30;;;3.10;;
12768;SDS011;6448;48.916;8.990;2024-01-25T03:41:42;5.50;;;3.25;;
12768;SDS011;6448;48.916;8.990;2024-01-25T03:42:43;6.28;;;3.25;;
12768;SDS011;6448;48.916;8.990;2024-01-25T03:43:45;6.28;;;3.38;;
12768;SDS011;6448;48.916;8.990;2024-01-25T03:44:46;7.38;;;3.58;;
12768;SDS011;6448;48.916;8.990;2024-01-25T03:45:48;5.47;;;2.80;;
12768;SDS011;6448;48.916;8.990;2024-01-25T03:46:49;6.32;;;3.20;;
12768;SDS011;6448;48.916;8.990;2024-01-25T03:47:51;5.80;;;3.25;;
12768;SDS011;6448;48.916;8.990;2024-01-25T03:48:52;5.15;;;3.00;;
12768;SDS011;6448;48.916;8.990;2024-01-25T03:49:54;4.80;;;2.88;;
12768;SDS011;6448;48.916;8.990;2024-01-25T03:50:55;6.20;;;2.83;;
12768;SDS011;6448;48.916;8.990;2024-01-25T03:51:56;6.25;;;3.00;;
12768;SDS011;6448;48.916;8.990;2024-01-25T03:52:58;5.78;;;3.08;;
12768;SDS011;6448;48.916;8.990;2024-01-25T03:53:59;5.40;;;2.60;;
12768;SDS011;6448;48.916;8.990;2024-01-25T03:55:02;5.00;;;2.90;;
12768;SDS011;6448;48.916;8.990;2024-01-25T03:56:03;7.10;;;3.20;;
12768;SDS011;6448;48.916;8.990;2024-01-25T03:57:10;5.70;;;2.90;;
12768;SDS011;6448;48.916;8.990;2024-01-25T03:58:12;6.30;;;3.42;;
12768;SDS011;6448;48.916;8.990;2024-01-25T03:59:12;6.80;;;3.33;;
12768;SDS011;6448;48.916;8.990;2024-01-25T04:00:14;6.50;;;3.20;;
12768;SDS011;6448;48.916;8.990;2024-01-25T04:01:16;6.93;;;3.55;;
12768;SDS011;6448;48.916;8.990;2024-01-25T04:02:17;8.88;;;4.65;;
12768;SDS011;6448;48.916;8.990;2024-01-25T04:03:19;7.57;;;3.90;;
12768;SDS011;6448;48.916;8.990;2024-01-25T04:04:20;7.57;;;3.90;;
12768;SDS011;6448;48.916;8.990;2024-01-25T04:05:22;6.78;;;3.38;;
12768;SDS011;6448;48.916;8.990;2024-01-25T04:06:22;6.57;;;3.30;;
12768;SDS011;6448;48.916;8.990;2024-01-25T04:07:24;5.53;;;3.00;;
12768;SDS011;6448;48.916;8.990;2024-01-25T04:08:25;6.25;;;3.28;;
12768;SDS011;6448;48.916;8.990;2024-01-25T04:09:27;6.80;;;3.10;;
12768;SDS011;6448;48.916;8.990;2024-01-25T04:10:29;5.85;;;2.97;;
12768;SDS011;6448;48.916;8.990;2024-01-25T04:11:30;5.32;;;3.10;;
12768;SDS011;6448;48.916;8.990;2024-01-25T04:12:31;6.47;;;3.20;;
12768;SDS011;6448;48.916;8.990;2024-01-25T04:13:33;5.70;;;3.30;;
12768;SDS011;6448;48.916;8.990;2024-01-25T04:14:34;6.00;;;3.35;;
12768;SDS011;6448;48.916;8.990;2024-01-25T04:15:36;5.53;;;2.95;;
12768;SDS011;6448;48.916;8.990;2024-01-25T04:16:37;5.68;;;3.00;;
12768;SDS011;6448;48.916;8.990;2024-01-25T04:17:39;5.43;;;2.85;;
12768;SDS011;6448;48.916;8.990;2024-01-25T04:18:40;5.40;;;2.70;;
12768;SDS011;6448;48.916;8.990;2024-01-25T04:19:42;5.72;;;2.95;;
12768;SDS011;6448;48.916;8.990;2024-01-25T04:20:43;6.00;;;3.08;;
12768;SDS011;6448;48.916;8.990;2024-01-25T04:21:45;5.57;;;2.78;;
12768;SDS011;6448;48.916;8.990;2024-01-25T04:22:46;6.67;;;3.23;;
12768;SDS011;6448;48.916;8.990;2024-01-25T04:23:48;6.88;;;3.00;;
12768;SDS011;6448;48.916;8.990;2024-01-25T04:24:48;5.33;;;2.97;;
12768;SDS011;6448;48.916;8.990;2024-01-25T04:25:51;6.85;;;2.80;;
12768;SDS011;6448;48.916;8.990;2024-01-25T04:26:55;5.68;;;3.10;;
12768;SDS011;6448;48.916;8.990;2024-01-25T04:27:57;5.65;;;3.03;;
12768;SDS011;6448;48.916;8.990;2024-01-25T04:28:58;4.80;;;2.80;;
12768;SDS011;6448;48.916;8.990;2024-01-25T04:29:59;6.40;;;3.10;;
12768;SDS011;6448;48.916;8.990;2024-01-25T04:31:03;8.27;;;3.20;;
12768;SDS011;6448;48.916;8.990;2024-01-25T04:32:05;6.82;;;3.13;;
12768;SDS011;6448;48.916;8.990;2024-01-25T04:33:06;6.10;;;3.08;;
12768;SDS011;6448;48.916;8.990;2024-01-25T04:34:08;5.70;;;3.17;;
12768;SDS011;6448;48.916;8.990;2024-01-25T04:35:08;7.17;;;3.30;;
12768;SDS011;6448;48.916;8.990;2024-01-25T04:36:10;5.68;;;2.90;;
12768;SDS011;6448;48.916;8.990;2024-01-25T04:37:12;5.53;;;2.78;;
12768;SDS011;6448;48.916;8.990;2024-01-25T04:38:13;6.77;;;3.00;;
12768;SDS011;6448;48.916;8.990;2024-01-25T04:39:15;5.05;;;2.80;;
12768;SDS011;6448;48.916;8.990;2024-01-25T04:40:16;6.53;;;2.90;;
12768;SDS011;6448;48.916;8.990;2024-01-25T04:41:19;5.65;;;2.92;;
12768;SDS011;6448;48.916;8.990;2024-01-25T04:42:19;5.97;;;3.00;;
12768;SDS011;6448;48.916;8.990;2024-01-25T04:43:21;7.53;;;2.92;;
12768;SDS011;6448;48.916;8.990;2024-01-25T04:44:22;5.45;;;2.90;;
12768;SDS011;6448;48.916;8.990;2024-01-25T04:45:24;6.20;;;3.08;;
12768;SDS011;6448;48.916;8.990;2024-01-25T04:46:24;5.70;;;2.88;;
12768;SDS011;6448;48.916;8.990;2024-01-25T04:47:26;5.90;;;2.90;;
12768;SDS011;6448;48.916;8.990;2024-01-25T04:48:27;5.57;;;2.67;;
12768;SDS011;6448;48.916;8.990;2024-01-25T04:49:28;5.93;;;3.05;;
12768;SDS011;6448;48.916;8.990;2024-01-25T04:50:30;6.90;;;2.88;;
12768;SDS011;6448;48.916;8.990;2024-01-25T04:51:30;6.10;;;3.00;;
12768;SDS011;6448;48.916;8.990;2024-01-25T04:52:32;5.35;;;2.90;;
12768;SDS011;6448;48.916;8.990;2024-01-25T04:53:33;5.93;;;2.83;;
12768;SDS011;6448;48.916;8.990;2024-01-25T04:54:35;5.90;;;2.90;;
12768;SDS011;6448;48.916;8.990;2024-01-25T04:55:35;6.00;;;3.77;;
12768;SDS011;6448;48.916;8.990;2024-01-25T04:56:37;6.33;;;3.37;;
12768;SDS011;6448;48.916;8.990;2024-01-25T04:57:39;6.00;;;3.33;;
12768;SDS011;6448;48.916;8.990;2024-01-25T04:58:40;7.15;;;3.40;;
12768;SDS011;6448;48.916;8.990;2024-01-25T04:59:42;8.13;;;3.17;;
12768;SDS011;6448;48.916;8.990;2024-01-25T05:00:43;5.88;;;3.15;;
12768;SDS011;6448;48.916;8.990;2024-01-25T05:01:45;6.55;;;3.20;;
12768;SDS011;6448;48.916;8.990;2024-01-25T05:02:45;5.75;;;3.00;;
12768;SDS011;6448;48.916;8.990;2024-01-25T05:03:47;5.97;;;3.05;;
12768;SDS011;6448;48.916;8.990;2024-01-25T05:04:48;6.70;;;2.90;;
12768;SDS011;6448;48.916;8.990;2024-01-25T05:05:49;5.57;;;2.83;;
12768;SDS011;6448;48.916;8.990;2024-01-25T05:06:50;6.53;;;2.90;;
12768;SDS011;6448;48.916;8.990;2024-01-25T05:07:52;6.05;;;2.88;;
12768;SDS011;6448;48.916;8.990;2024-01-25T05:08:53;7.40;;;3.23;;
12768;SDS011;6448;48.916;8.990;2024-01-25T05:09:54;5.70;;;2.95;;
12768;SDS011;6448;48.916;8.990;2024-01-25T05:10:55;6.43;;;3.13;;
12768;SDS011;6448;48.916;8.990;2024-01-25T05:11:58;5.82;;;2.80;;
12768;SDS011;6448;48.916;8.990;2024-01-25T05:13:02;6.15;;;2.90;;
12768;SDS011;6448;48.916;8.990;2024-01-25T05:14:04;5.82;;;3.20;;
12768;SDS011;6448;48.916;8.990;2024-01-25T05:15:05;5.85;;;3.05;;
12768;SDS011;6448;48.916;8.990;2024-01-25T05:16:07;6.25;;;3.17;;
12768;SDS011;6448;48.916;8.990;2024-01-25T05:17:08;4.78;;;2.65;;
12768;SDS011;6448;48.916;8.990;2024-01-25T05:18:09;5.90;;;2.90;;
12768;SDS011;6448;48.916;8.990;2024-01-25T05:19:10;6.53;;;3.20;;
12768;SDS011;6448;48.916;8.990;2024-01-25T05:20:12;5.53;;;3.10;;
12768;SDS011;6448;48.916;8.990;2024-01-25T05:21:15;6.53;;;3.03;;
12768;SDS011;6448;48.916;8.990;2024-01-25T05:22:16;6.82;;;2.90;;
12768;SDS011;6448;48.916;8.990;2024-01-25T05:23:18;6.18;;;3.13;;
12768;SDS011;6448;48.916;8.990;2024-01-25T05:24:18;5.03;;;2.80;;
12768;SDS011;6448;48.916;8.990;2024-01-25T05:25:20;6.13;;;2.85;;
12768;SDS011;6448;48.916;8.990;2024-01-25T05:26:21;5.93;;;2.88;;
12768;SDS011;6448;48.916;8.990;2024-01-25T05:27:25;6.72;;;3.20;;
12768;SDS011;6448;48.916;8.990;2024-01-25T05:28:25;5.43;;;3.00;;
12768;SDS011;6448;48.916;8.990;2024-01-25T05:29:26;5.97;;;2.90;;
12768;SDS011;6448;48.916;8.990;2024-01-25T05:30:28;5.70;;;3.20;;
12768;SDS011;6448;48.916;8.990;2024-01-25T05:31:29;6.50;;;3.00;;
12768;SDS011;6448;48.916;8.990;2024-01-25T05:32:31;5.30;;;3.15;;
12768;SDS011;6448;48.916;8.990;2024-01-25T05:33:32;5.97;;;3.20;;
12768;SDS011;6448;48.916;8.990;2024-01-25T05:34:34;5.68;;;3.47;;
12768;SDS011;6448;48.916;8.990;2024-01-25T05:35:35;6.70;;;3.20;;
12768;SDS011;6448;48.916;8.990;2024-01-25T05:36:36;5.50;;;2.83;;
12768;SDS011;6448;48.916;8.990;2024-01-25T05:37:37;5.33;;;3.10;;
12768;SDS011;6448;48.916;8.990;2024-01-25T05:38:38;5.47;;;3.33;;
12768;SDS011;6448;48.916;8.990;2024-01-25T05:39:40;5.60;;;3.38;;
12768;SDS011;6448;48.916;8.990;2024-01-25T05:40:40;6.40;;;3.35;;
12768;SDS011;6448;48.916;8.990;2024-01-25T05:41:41;7.43;;;3.83;;
12768;SDS011;6448;48.916;8.990;2024-01-25T05:42:46;7.25;;;4.07;;
12768;SDS011;6448;48.916;8.990;2024-01-25T05:43:47;8.52;;;4.32;;
12768;SDS011;6448;48.916;8.990;2024-01-25T05:44:48;5.70;;;4.20;;
12768;SDS011;6448;48.916;8.990;2024-01-25T05:45:49;6.60;;;4.15;;
12768;SDS011;6448;48.916;8.990;2024-01-25T05:46:50;7.40;;;3.88;;
12768;SDS011;6448;48.916;8.990;2024-01-25T05:47:52;7.70;;;4.53;;
12768;SDS011;6448;48.916;8.990;2024-01-25T05:48:52;6.88;;;4.00;;
12768;SDS011;6448;48.916;8.990;2024-01-25T05:49:54;6.75;;;3.90;;
12768;SDS011;6448;48.916;8.990;2024-01-25T05:50:55;7.18;;;3.95;;
12768;SDS011;6448;48.916;8.990;2024-01-25T05:51:57;6.18;;;3.55;;
12768;SDS011;6448;48.916;8.990;2024-01-25T05:52:58;5.70;;;3.50;;
12768;SDS011;6448;48.916;8.990;2024-01-25T05:53:59;5.75;;;3.40;;
12768;SDS011;6448;48.916;8.990;2024-01-25T05:55:00;6.60;;;4.10;;
12768;SDS011;6448;48.916;8.990;2024-01-25T05:56:02;6.63;;;3.95;;
12768;SDS011;6448;48.916;8.990;2024-01-25T05:57:04;6.75;;;3.95;;
12768;SDS011;6448;48.916;8.990;2024-01-25T05:58:07;6.03;;;3.78;;
12768;SDS011;6448;48.916;8.990;2024-01-25T05:59:08;7.25;;;4.10;;
12768;SDS011;6448;48.916;8.990;2024-01-25T06:00:11;7.38;;;5.10;;
12768;SDS011;6448;48.916;8.990;2024-01-25T06:01:13;8.43;;;4.78;;
12768;SDS011;6448;48.916;8.990;2024-01-25T06:02:14;6.70;;;3.45;;
12768;SDS011;6448;48.916;8.990;2024-01-25T06:03:15;5.45;;;3.35;;
12768;SDS011;6448;48.916;8.990;2024-01-25T06:04:17;6.25;;;3.78;;
12768;SDS011;6448;48.916;8.990;2024-01-25T06:05:19;5.53;;;3.17;;
12768;SDS011;6448;48.916;8.990;2024-01-25T06:06:21;6.10;;;3.38;;
12768;SDS011;6448;48.916;8.990;2024-01-25T06:07:21;6.10;;;3.20;;
12768;SDS011;6448;48.916;8.990;2024-01-25T06:08:23;6.55;;;3.40;;
12768;SDS011;6448;48.916;8.990;2024-01-25T06:09:24;5.53;;;3.15;;
12768;SDS011;6448;48.916;8.990;2024-01-25T06:10:26;6.43;;;3.10;;
12768;SDS011;6448;48.916;8.990;2024-01-25T06:11:27;6.13;;;3.20;;
12768;SDS011;6448;48.916;8.990;2024-01-25T06:12:28;5.57;;;3.20;;
12768;SDS011;6448;48.916;8.990;2024-01-25T06:13:31;4.93;;;2.90;;
12768;SDS011;6448;48.916;8.990;2024-01-25T06:14:32;5.55;;;3.10;;
12768;SDS011;6448;48.916;8.990;2024-01-25T06:15:33;6.05;;;3.40;;
12768;SDS011;6448;48.916;8.990;2024-01-25T06:16:35;6.63;;;4.20;;